sensor_id;sensor_type;location;lat;lon;timestamp;P1;durP1;ratioP1;P2;durP2;ratioP2
2840;SDS011;53423;49.224;12.074;2022-12-13T00:01:32;24.53;;;17.13;;
2840;SDS011;53423;49.224;12.074;2022-12-13T00:04:02;27.40;;;19.10;;
2840;SDS011;53423;49.224;12.074;2022-12-13T00:06:33;27.27;;;17.20;;
2840;SDS011;53423;49.224;12.074;2022-12-13T00:09:02;30.83;;;18.40;;
2840;SDS011;53423;49.224;12.074;2022-12-13T00:11:31;29.40;;;17.03;;
2840;SDS011;53423;49.224;12.074;2022-12-13T00:14:00;25.83;;;17.33;;
2840;SDS011;53423;49.224;12.074;2022-12-13T00:16:28;27.57;;;18.50;;
2840;SDS011;53423;49.224;12.074;2022-12-13T00:18:57;27.83;;;18.07;;
2840;SDS011;53423;49.224;12.074;2022-12-13T00:21:26;33.77;;;19.80;;
2840;SDS011;53423;49.224;12.074;2022-12-13T00:23:57;31.63;;;20.27;;
2840;SDS011;53423;49.224;12.074;2022-12-13T00:26:28;29.63;;;19.60;;
2840;SDS011;53423;49.224;12.074;2022-12-13T00:28:57;30.97;;;19.57;;
2840;SDS011;53423;49.224;12.074;2022-12-13T00:31:26;32.97;;;19.83;;
2840;SDS011;53423;49.224;12.074;2022-12-13T00:34:16;30.23;;;19.97;;
2840;SDS011;53423;49.224;12.074;2022-12-13T00:36:45;30.10;;;18.97;;
2840;SDS011;53423;49.224;12.074;2022-12-13T00:39:15;29.20;;;19.97;;
2840;SDS011;53423;49.224;12.074;2022-12-13T00:41:44;25.90;;;18.00;;
2840;SDS011;53423;49.224;12.074;2022-12-13T00:44:13;31.30;;;18.87;;
2840;SDS011;53423;49.224;12.074;2022-12-13T00:46:41;24.70;;;16.60;;
2840;SDS011;53423;49.224;12.074;2022-12-13T00:49:10;23.63;;;15.80;;
2840;SDS011;53423;49.224;12.074;2022-12-13T00:51:38;23.67;;;15.50;;
2840;SDS011;53423;49.224;12.074;2022-12-13T00:54:07;22.93;;;15.03;;
2840;SDS011;53423;49.224;12.074;2022-12-13T00:56:38;19.30;;;13.57;;
2840;SDS011;53423;49.224;12.074;2022-12-13T00:59:06;20.60;;;13.67;;
2840;SDS011;53423;49.224;12.074;2022-12-13T01:01:36;21.80;;;14.73;;
2840;SDS011;53423;49.224;12.074;2022-12-13T01:04:04;20.40;;;13.97;;
2840;SDS011;53423;49.224;12.074;2022-12-13T01:06:35;20.80;;;13.30;;
2840;SDS011;53423;49.224;12.074;2022-12-13T01:09:06;18.43;;;13.13;;
2840;SDS011;53423;49.224;12.074;2022-12-13T01:11:40;20.60;;;13.00;;
2840;SDS011;53423;49.224;12.074;2022-12-13T01:14:08;19.67;;;13.73;;
2840;SDS011;53423;49.224;12.074;2022-12-13T01:16:36;20.87;;;14.20;;
2840;SDS011;53423;49.224;12.074;2022-12-13T01:19:04;17.37;;;12.03;;
2840;SDS011;53423;49.224;12.074;2022-12-13T01:21:32;19.80;;;12.63;;
2840;SDS011;53423;49.224;12.074;2022-12-13T01:24:01;20.77;;;12.80;;
2840;SDS011;53423;49.224;12.074;2022-12-13T01:26:30;22.77;;;14.07;;
2840;SDS011;53423;49.224;12.074;2022-12-13T01:29:00;24.80;;;14.50;;
2840;SDS011;53423;49.224;12.074;2022-12-13T01:31:30;21.50;;;13.43;;
2840;SDS011;53423;49.224;12.074;2022-12-13T01:33:58;20.73;;;13.70;;
2840;SDS011;53423;49.224;12.074;2022-12-13T01:36:35;20.43;;;13.17;;
2840;SDS011;53423;49.224;12.074;2022-12-13T01:39:05;21.40;;;13.33;;
2840;SDS011;53423;49.224;12.074;2022-12-13T01:41:41;19.00;;;11.47;;
2840;SDS011;53423;49.224;12.074;2022-12-13T01:47:12;20.03;;;12.80;;
2840;SDS011;53423;49.224;12.074;2022-12-13T01:49:45;21.87;;;13.93;;
2840;SDS011;53423;49.224;12.074;2022-12-13T01:52:13;19.97;;;13.33;;
2840;SDS011;53423;49.224;12.074;2022-12-13T01:54:44;19.57;;;13.43;;
2840;SDS011;53423;49.224;12.074;2022-12-13T01:57:14;19.90;;;13.50;;
2840;SDS011;53423;49.224;12.074;2022-12-13T01:59:46;18.57;;;12.77;;
2840;SDS011;53423;49.224;12.074;2022-12-13T02:02:18;17.87;;;12.47;;
2840;SDS011;53423;49.224;12.074;2022-12-13T02:04:48;19.53;;;12.47;;
2840;SDS011;53423;49.224;12.074;2022-12-13T02:07:23;17.77;;;12.13;;
2840;SDS011;53423;49.224;12.074;2022-12-13T02:09:54;19.00;;;12.23;;
2840;SDS011;53423;49.224;12.074;2022-12-13T02:12:25;21.00;;;12.63;;
2840;SDS011;53423;49.224;12.074;2022-12-13T02:14:56;19.77;;;12.40;;
2840;SDS011;53423;49.224;12.074;2022-12-13T02:17:28;16.10;;;11.67;;
2840;SDS011;53423;49.224;12.074;2022-12-13T02:23:11;19.10;;;12.67;;
2840;SDS011;53423;49.224;12.074;2022-12-13T02:29:13;17.23;;;13.00;;
2840;SDS011;53423;49.224;12.074;2022-12-13T02:31:59;20.23;;;12.23;;
2840;SDS011;53423;49.224;12.074;2022-12-13T02:34:32;16.93;;;11.70;;
2840;SDS011;53423;49.224;12.074;2022-12-13T02:37:06;15.50;;;10.87;;
2840;SDS011;53423;49.224;12.074;2022-12-13T02:39:46;19.87;;;12.63;;
2840;SDS011;53423;49.224;12.074;2022-12-13T02:42:19;17.87;;;10.87;;
2840;SDS011;53423;49.224;12.074;2022-12-13T02:44:53;18.40;;;11.53;;
2840;SDS011;53423;49.224;12.074;2022-12-13T02:47:25;18.17;;;12.63;;
2840;SDS011;53423;49.224;12.074;2022-12-13T02:49:56;17.83;;;12.63;;
2840;SDS011;53423;49.224;12.074;2022-12-13T02:52:26;20.67;;;13.30;;
2840;SDS011;53423;49.224;12.074;2022-12-13T02:54:57;19.10;;;11.40;;
2840;SDS011;53423;49.224;12.074;2022-12-13T02:57:27;17.30;;;11.73;;
2840;SDS011;53423;49.224;12.074;2022-12-13T02:59:57;19.10;;;12.20;;
2840;SDS011;53423;49.224;12.074;2022-12-13T03:02:31;19.20;;;12.17;;
2840;SDS011;53423;49.224;12.074;2022-12-13T03:05:11;16.33;;;11.70;;
2840;SDS011;53423;49.224;12.074;2022-12-13T03:08:06;20.57;;;13.37;;
2840;SDS011;53423;49.224;12.074;2022-12-13T03:10:46;17.80;;;12.67;;
2840;SDS011;53423;49.224;12.074;2022-12-13T03:13:22;15.83;;;11.23;;
2840;SDS011;53423;49.224;12.074;2022-12-13T03:16:12;18.80;;;12.23;;
2840;SDS011;53423;49.224;12.074;2022-12-13T03:18:49;17.77;;;11.20;;
2840;SDS011;53423;49.224;12.074;2022-12-13T03:21:19;16.60;;;11.00;;
2840;SDS011;53423;49.224;12.074;2022-12-13T03:23:47;16.33;;;11.57;;
2840;SDS011;53423;49.224;12.074;2022-12-13T03:26:15;16.13;;;11.53;;
2840;SDS011;53423;49.224;12.074;2022-12-13T03:28:46;17.57;;;11.60;;
2840;SDS011;53423;49.224;12.074;2022-12-13T03:31:14;16.53;;;11.07;;
2840;SDS011;53423;49.224;12.074;2022-12-13T03:33:42;16.47;;;10.50;;
2840;SDS011;53423;49.224;12.074;2022-12-13T03:36:12;16.37;;;11.37;;
2840;SDS011;53423;49.224;12.074;2022-12-13T03:38:40;15.43;;;10.33;;
2840;SDS011;53423;49.224;12.074;2022-12-13T03:41:12;14.23;;;9.77;;
2840;SDS011;53423;49.224;12.074;2022-12-13T03:43:42;18.13;;;11.33;;
2840;SDS011;53423;49.224;12.074;2022-12-13T03:46:10;15.27;;;10.57;;
2840;SDS011;53423;49.224;12.074;2022-12-13T03:48:38;17.33;;;11.03;;
2840;SDS011;53423;49.224;12.074;2022-12-13T03:51:06;16.73;;;10.70;;
2840;SDS011;53423;49.224;12.074;2022-12-13T03:53:36;16.57;;;11.43;;
2840;SDS011;53423;49.224;12.074;2022-12-13T03:56:04;15.90;;;11.23;;
2840;SDS011;53423;49.224;12.074;2022-12-13T03:58:33;17.63;;;11.60;;
2840;SDS011;53423;49.224;12.074;2022-12-13T04:01:04;19.57;;;11.30;;
2840;SDS011;53423;49.224;12.074;2022-12-13T04:03:33;19.90;;;11.33;;
2840;SDS011;53423;49.224;12.074;2022-12-13T04:06:01;15.53;;;11.60;;
2840;SDS011;53423;49.224;12.074;2022-12-13T04:08:29;17.27;;;11.40;;
2840;SDS011;53423;49.224;12.074;2022-12-13T04:10:59;17.00;;;12.07;;
2840;SDS011;53423;49.224;12.074;2022-12-13T04:13:48;14.27;;;10.40;;
2840;SDS011;53423;49.224;12.074;2022-12-13T04:16:14;13.97;;;9.57;;
2840;SDS011;53423;49.224;12.074;2022-12-13T04:18:42;16.50;;;11.60;;
2840;SDS011;53423;49.224;12.074;2022-12-13T04:21:10;17.47;;;10.93;;
2840;SDS011;53423;49.224;12.074;2022-12-13T04:23:38;15.90;;;10.20;;
2840;SDS011;53423;49.224;12.074;2022-12-13T04:26:08;16.20;;;11.33;;
2840;SDS011;53423;49.224;12.074;2022-12-13T04:28:36;18.83;;;11.47;;
2840;SDS011;53423;49.224;12.074;2022-12-13T04:31:04;18.40;;;11.23;;
2840;SDS011;53423;49.224;12.074;2022-12-13T04:33:32;18.30;;;12.17;;
2840;SDS011;53423;49.224;12.074;2022-12-13T04:36:00;15.50;;;11.17;;
2840;SDS011;53423;49.224;12.074;2022-12-13T04:38:28;17.77;;;11.73;;
2840;SDS011;53423;49.224;12.074;2022-12-13T04:41:03;19.77;;;11.83;;
2840;SDS011;53423;49.224;12.074;2022-12-13T04:43:33;18.07;;;11.47;;
2840;SDS011;53423;49.224;12.074;2022-12-13T04:46:01;17.43;;;11.00;;
2840;SDS011;53423;49.224;12.074;2022-12-13T04:48:29;19.13;;;11.27;;
2840;SDS011;53423;49.224;12.074;2022-12-13T04:50:58;16.83;;;10.80;;
2840;SDS011;53423;49.224;12.074;2022-12-13T04:53:28;19.57;;;11.13;;
2840;SDS011;53423;49.224;12.074;2022-12-13T04:55:56;17.93;;;11.63;;
2840;SDS011;53423;49.224;12.074;2022-12-13T04:58:24;17.00;;;10.83;;
2840;SDS011;53423;49.224;12.074;2022-12-13T05:00:53;16.70;;;10.23;;
2840;SDS011;53423;49.224;12.074;2022-12-13T05:03:21;15.13;;;10.33;;
2840;SDS011;53423;49.224;12.074;2022-12-13T05:05:50;18.17;;;10.57;;
2840;SDS011;53423;49.224;12.074;2022-12-13T05:08:18;15.93;;;10.20;;
2840;SDS011;53423;49.224;12.074;2022-12-13T05:10:46;16.10;;;9.70;;
2840;SDS011;53423;49.224;12.074;2022-12-13T05:13:14;14.83;;;9.40;;
2840;SDS011;53423;49.224;12.074;2022-12-13T05:15:42;17.70;;;9.57;;
2840;SDS011;53423;49.224;12.074;2022-12-13T05:18:11;14.53;;;8.97;;
2840;SDS011;53423;49.224;12.074;2022-12-13T05:20:39;12.10;;;8.77;;
2840;SDS011;53423;49.224;12.074;2022-12-13T05:23:07;14.33;;;8.17;;
2840;SDS011;53423;49.224;12.074;2022-12-13T05:25:35;12.70;;;8.43;;
2840;SDS011;53423;49.224;12.074;2022-12-13T05:28:03;13.17;;;8.70;;
2840;SDS011;53423;49.224;12.074;2022-12-13T05:30:51;13.83;;;8.67;;
2840;SDS011;53423;49.224;12.074;2022-12-13T05:33:21;13.67;;;8.73;;
2840;SDS011;53423;49.224;12.074;2022-12-13T05:35:49;13.83;;;8.27;;
2840;SDS011;53423;49.224;12.074;2022-12-13T05:38:25;13.90;;;7.97;;
2840;SDS011;53423;49.224;12.074;2022-12-13T05:40:54;14.50;;;8.97;;
2840;SDS011;53423;49.224;12.074;2022-12-13T05:43:22;16.37;;;8.40;;
2840;SDS011;53423;49.224;12.074;2022-12-13T05:46:09;12.13;;;8.17;;
2840;SDS011;53423;49.224;12.074;2022-12-13T05:48:39;13.20;;;8.60;;
2840;SDS011;53423;49.224;12.074;2022-12-13T05:51:07;12.30;;;8.77;;
2840;SDS011;53423;49.224;12.074;2022-12-13T05:53:38;15.20;;;9.20;;
2840;SDS011;53423;49.224;12.074;2022-12-13T05:56:06;12.37;;;8.57;;
2840;SDS011;53423;49.224;12.074;2022-12-13T05:58:36;13.83;;;8.90;;
2840;SDS011;53423;49.224;12.074;2022-12-13T06:01:06;14.20;;;8.73;;
2840;SDS011;53423;49.224;12.074;2022-12-13T06:03:35;11.20;;;7.83;;
2840;SDS011;53423;49.224;12.074;2022-12-13T06:06:05;13.53;;;8.77;;
2840;SDS011;53423;49.224;12.074;2022-12-13T06:08:35;14.27;;;8.97;;
2840;SDS011;53423;49.224;12.074;2022-12-13T06:11:05;13.20;;;8.23;;
2840;SDS011;53423;49.224;12.074;2022-12-13T06:13:38;11.77;;;8.80;;
2840;SDS011;53423;49.224;12.074;2022-12-13T06:16:08;13.70;;;8.50;;
2840;SDS011;53423;49.224;12.074;2022-12-13T06:18:49;13.17;;;8.50;;
2840;SDS011;53423;49.224;12.074;2022-12-13T06:21:30;11.93;;;8.13;;
2840;SDS011;53423;49.224;12.074;2022-12-13T06:24:10;17.10;;;8.43;;
2840;SDS011;53423;49.224;12.074;2022-12-13T06:26:39;15.03;;;9.70;;
2840;SDS011;53423;49.224;12.074;2022-12-13T06:29:07;17.23;;;10.53;;
2840;SDS011;53423;49.224;12.074;2022-12-13T06:31:35;14.97;;;10.00;;
2840;SDS011;53423;49.224;12.074;2022-12-13T06:34:03;22.17;;;12.17;;
2840;SDS011;53423;49.224;12.074;2022-12-13T06:36:41;17.40;;;11.37;;
2840;SDS011;53423;49.224;12.074;2022-12-13T06:39:09;18.23;;;10.90;;
2840;SDS011;53423;49.224;12.074;2022-12-13T06:41:37;16.40;;;11.00;;
2840;SDS011;53423;49.224;12.074;2022-12-13T06:44:05;21.13;;;10.83;;
2840;SDS011;53423;49.224;12.074;2022-12-13T06:46:33;17.40;;;10.60;;
2840;SDS011;53423;49.224;12.074;2022-12-13T06:49:06;18.77;;;12.10;;
2840;SDS011;53423;49.224;12.074;2022-12-13T06:51:34;17.80;;;11.27;;
2840;SDS011;53423;49.224;12.074;2022-12-13T06:54:03;18.47;;;12.57;;
2840;SDS011;53423;49.224;12.074;2022-12-13T06:56:31;18.63;;;11.00;;
2840;SDS011;53423;49.224;12.074;2022-12-13T06:58:59;19.87;;;11.77;;
2840;SDS011;53423;49.224;12.074;2022-12-13T07:01:28;14.57;;;10.17;;
2840;SDS011;53423;49.224;12.074;2022-12-13T07:04:03;20.83;;;11.90;;
2840;SDS011;53423;49.224;12.074;2022-12-13T07:06:51;19.40;;;10.77;;
2840;SDS011;53423;49.224;12.074;2022-12-13T07:09:21;16.20;;;10.83;;
2840;SDS011;53423;49.224;12.074;2022-12-13T07:11:49;18.37;;;11.23;;
2840;SDS011;53423;49.224;12.074;2022-12-13T07:14:18;21.07;;;11.57;;
2840;SDS011;53423;49.224;12.074;2022-12-13T07:16:46;16.83;;;11.90;;
2840;SDS011;53423;49.224;12.074;2022-12-13T07:19:14;19.63;;;11.57;;
2840;SDS011;53423;49.224;12.074;2022-12-13T07:21:48;20.13;;;11.77;;
2840;SDS011;53423;49.224;12.074;2022-12-13T07:24:16;19.70;;;12.03;;
2840;SDS011;53423;49.224;12.074;2022-12-13T07:26:45;18.50;;;11.73;;
2840;SDS011;53423;49.224;12.074;2022-12-13T07:29:13;20.40;;;12.17;;
2840;SDS011;53423;49.224;12.074;2022-12-13T07:31:48;18.23;;;11.53;;
2840;SDS011;53423;49.224;12.074;2022-12-13T07:34:16;18.63;;;11.47;;
2840;SDS011;53423;49.224;12.074;2022-12-13T07:36:44;20.60;;;11.07;;
2840;SDS011;53423;49.224;12.074;2022-12-13T07:39:12;21.83;;;11.83;;
2840;SDS011;53423;49.224;12.074;2022-12-13T07:41:40;22.10;;;14.13;;
2840;SDS011;53423;49.224;12.074;2022-12-13T07:44:09;24.83;;;13.90;;
2840;SDS011;53423;49.224;12.074;2022-12-13T07:46:37;28.60;;;17.37;;
2840;SDS011;53423;49.224;12.074;2022-12-13T07:49:05;20.60;;;13.97;;
2840;SDS011;53423;49.224;12.074;2022-12-13T07:51:33;17.13;;;12.33;;
2840;SDS011;53423;49.224;12.074;2022-12-13T07:54:03;19.43;;;11.27;;
2840;SDS011;53423;49.224;12.074;2022-12-13T07:56:33;15.63;;;10.63;;
2840;SDS011;53423;49.224;12.074;2022-12-13T07:59:01;13.60;;;10.50;;
2840;SDS011;53423;49.224;12.074;2022-12-13T08:01:31;14.33;;;10.83;;
2840;SDS011;53423;49.224;12.074;2022-12-13T08:04:00;15.27;;;10.83;;
2840;SDS011;53423;49.224;12.074;2022-12-13T08:06:29;15.73;;;11.03;;
2840;SDS011;53423;49.224;12.074;2022-12-13T08:09:00;19.60;;;14.73;;
2840;SDS011;53423;49.224;12.074;2022-12-13T08:11:29;17.37;;;14.77;;
2840;SDS011;53423;49.224;12.074;2022-12-13T08:13:56;17.70;;;15.50;;
2840;SDS011;53423;49.224;12.074;2022-12-13T08:16:25;19.57;;;16.00;;
2840;SDS011;53423;49.224;12.074;2022-12-13T08:18:56;19.20;;;16.23;;
2840;SDS011;53423;49.224;12.074;2022-12-13T08:21:28;17.03;;;15.27;;
2840;SDS011;53423;49.224;12.074;2022-12-13T08:24:19;18.43;;;15.47;;
2840;SDS011;53423;49.224;12.074;2022-12-13T08:26:47;16.47;;;14.73;;
2840;SDS011;53423;49.224;12.074;2022-12-13T08:29:15;14.97;;;13.37;;
2840;SDS011;53423;49.224;12.074;2022-12-13T08:31:59;25.50;;;22.73;;
2840;SDS011;53423;49.224;12.074;2022-12-13T08:34:31;13.20;;;12.00;;
2840;SDS011;53423;49.224;12.074;2022-12-13T08:36:59;13.33;;;12.03;;
2840;SDS011;53423;49.224;12.074;2022-12-13T08:39:29;11.10;;;10.07;;
2840;SDS011;53423;49.224;12.074;2022-12-13T08:42:00;15.13;;;13.83;;
2840;SDS011;53423;49.224;12.074;2022-12-13T08:44:43;13.00;;;11.57;;
2840;SDS011;53423;49.224;12.074;2022-12-13T08:47:12;10.83;;;9.73;;
2840;SDS011;53423;49.224;12.074;2022-12-13T08:49:52;12.70;;;11.40;;
2840;SDS011;53423;49.224;12.074;2022-12-13T08:52:29;11.43;;;10.40;;
2840;SDS011;53423;49.224;12.074;2022-12-13T08:55:06;11.30;;;10.27;;
2840;SDS011;53423;49.224;12.074;2022-12-13T08:57:35;11.20;;;10.10;;
2840;SDS011;53423;49.224;12.074;2022-12-13T09:00:03;11.30;;;10.20;;
2840;SDS011;53423;49.224;12.074;2022-12-13T09:02:31;11.13;;;10.13;;
2840;SDS011;53423;49.224;12.074;2022-12-13T09:05:06;11.93;;;10.83;;
2840;SDS011;53423;49.224;12.074;2022-12-13T09:07:35;11.37;;;10.30;;
2840;SDS011;53423;49.224;12.074;2022-12-13T09:10:05;11.43;;;10.43;;
2840;SDS011;53423;49.224;12.074;2022-12-13T09:12:53;10.90;;;9.80;;
2840;SDS011;53423;49.224;12.074;2022-12-13T09:15:27;10.63;;;9.73;;
2840;SDS011;53423;49.224;12.074;2022-12-13T09:18:00;9.70;;;8.77;;
2840;SDS011;53423;49.224;12.074;2022-12-13T09:20:32;11.03;;;9.93;;
2840;SDS011;53423;49.224;12.074;2022-12-13T09:23:07;21.60;;;18.13;;
2840;SDS011;53423;49.224;12.074;2022-12-13T09:25:39;12.77;;;11.43;;
2840;SDS011;53423;49.224;12.074;2022-12-13T09:28:18;14.87;;;13.33;;
2840;SDS011;53423;49.224;12.074;2022-12-13T09:30:45;10.90;;;9.93;;
2840;SDS011;53423;49.224;12.074;2022-12-13T09:33:13;13.00;;;11.80;;
2840;SDS011;53423;49.224;12.074;2022-12-13T09:35:57;13.97;;;12.57;;
2840;SDS011;53423;49.224;12.074;2022-12-13T09:38:27;13.47;;;12.17;;
2840;SDS011;53423;49.224;12.074;2022-12-13T09:40:54;12.40;;;11.03;;
2840;SDS011;53423;49.224;12.074;2022-12-13T09:43:27;11.60;;;10.50;;
2840;SDS011;53423;49.224;12.074;2022-12-13T09:46:10;11.80;;;10.70;;
2840;SDS011;53423;49.224;12.074;2022-12-13T09:48:49;13.30;;;11.90;;
2840;SDS011;53423;49.224;12.074;2022-12-13T09:51:29;11.20;;;10.10;;
2840;SDS011;53423;49.224;12.074;2022-12-13T09:54:10;11.40;;;10.20;;
2840;SDS011;53423;49.224;12.074;2022-12-13T09:56:44;12.63;;;11.43;;
2840;SDS011;53423;49.224;12.074;2022-12-13T09:59:16;12.30;;;10.00;;
2840;SDS011;53423;49.224;12.074;2022-12-13T10:01:46;11.60;;;10.17;;
2840;SDS011;53423;49.224;12.074;2022-12-13T10:04:14;13.33;;;12.03;;
2840;SDS011;53423;49.224;12.074;2022-12-13T10:06:44;10.27;;;9.17;;
2840;SDS011;53423;49.224;12.074;2022-12-13T10:09:12;10.53;;;9.47;;
2840;SDS011;53423;49.224;12.074;2022-12-13T10:11:47;10.87;;;9.80;;
2840;SDS011;53423;49.224;12.074;2022-12-13T10:14:17;10.63;;;9.53;;
2840;SDS011;53423;49.224;12.074;2022-12-13T10:16:51;10.63;;;9.50;;
2840;SDS011;53423;49.224;12.074;2022-12-13T10:19:25;10.47;;;9.30;;
2840;SDS011;53423;49.224;12.074;2022-12-13T10:22:01;10.63;;;9.57;;
2840;SDS011;53423;49.224;12.074;2022-12-13T10:24:46;10.57;;;9.07;;
2840;SDS011;53423;49.224;12.074;2022-12-13T10:27:16;11.60;;;10.40;;
2840;SDS011;53423;49.224;12.074;2022-12-13T10:30:01;10.50;;;9.27;;
2840;SDS011;53423;49.224;12.074;2022-12-13T10:32:41;16.30;;;13.40;;
2840;SDS011;53423;49.224;12.074;2022-12-13T10:35:18;10.03;;;9.00;;
2840;SDS011;53423;49.224;12.074;2022-12-13T10:37:51;11.00;;;9.90;;
2840;SDS011;53423;49.224;12.074;2022-12-13T10:40:23;13.80;;;11.53;;
2840;SDS011;53423;49.224;12.074;2022-12-13T10:43:05;13.47;;;8.97;;
2840;SDS011;53423;49.224;12.074;2022-12-13T10:45:34;10.97;;;9.77;;
2840;SDS011;53423;49.224;12.074;2022-12-13T10:48:02;9.30;;;7.73;;
2840;SDS011;53423;49.224;12.074;2022-12-13T10:50:31;11.07;;;8.43;;
2840;SDS011;53423;49.224;12.074;2022-12-13T10:53:00;10.57;;;9.53;;
2840;SDS011;53423;49.224;12.074;2022-12-13T10:55:29;11.80;;;8.27;;
2840;SDS011;53423;49.224;12.074;2022-12-13T10:57:59;9.23;;;8.30;;
2840;SDS011;53423;49.224;12.074;2022-12-13T11:00:34;12.77;;;11.47;;
2840;SDS011;53423;49.224;12.074;2022-12-13T11:03:04;11.00;;;9.80;;
2840;SDS011;53423;49.224;12.074;2022-12-13T11:05:33;13.33;;;8.93;;
2840;SDS011;53423;49.224;12.074;2022-12-13T11:08:19;10.33;;;8.87;;
2840;SDS011;53423;49.224;12.074;2022-12-13T11:10:56;11.83;;;8.17;;
2840;SDS011;53423;49.224;12.074;2022-12-13T11:13:29;9.47;;;8.47;;
2840;SDS011;53423;49.224;12.074;2022-12-13T11:16:02;10.97;;;8.63;;
2840;SDS011;53423;49.224;12.074;2022-12-13T11:18:33;11.73;;;8.43;;
2840;SDS011;53423;49.224;12.074;2022-12-13T11:21:04;10.40;;;8.00;;
2840;SDS011;53423;49.224;12.074;2022-12-13T11:23:35;8.63;;;7.77;;
2840;SDS011;53423;49.224;12.074;2022-12-13T11:26:07;8.57;;;7.77;;
2840;SDS011;53423;49.224;12.074;2022-12-13T11:28:51;10.83;;;7.80;;
2840;SDS011;53423;49.224;12.074;2022-12-13T11:31:40;9.00;;;8.20;;
2840;SDS011;53423;49.224;12.074;2022-12-13T11:34:22;8.60;;;7.70;;
2840;SDS011;53423;49.224;12.074;2022-12-13T11:37:02;8.67;;;7.80;;
2840;SDS011;53423;49.224;12.074;2022-12-13T11:39:43;9.00;;;8.20;;
2840;SDS011;53423;49.224;12.074;2022-12-13T11:42:17;9.83;;;8.43;;
2840;SDS011;53423;49.224;12.074;2022-12-13T11:44:55;9.10;;;8.20;;
2840;SDS011;53423;49.224;12.074;2022-12-13T11:47:32;8.60;;;7.80;;
2840;SDS011;53423;49.224;12.074;2022-12-13T11:50:16;11.73;;;7.97;;
2840;SDS011;53423;49.224;12.074;2022-12-13T11:53:04;9.30;;;8.27;;
2840;SDS011;53423;49.224;12.074;2022-12-13T11:55:47;8.03;;;7.30;;
2840;SDS011;53423;49.224;12.074;2022-12-13T11:58:22;7.60;;;6.80;;
2840;SDS011;53423;49.224;12.074;2022-12-13T12:01:16;8.47;;;7.50;;
2840;SDS011;53423;49.224;12.074;2022-12-13T12:03:53;8.20;;;7.40;;
2840;SDS011;53423;49.224;12.074;2022-12-13T12:06:26;8.80;;;7.90;;
2840;SDS011;53423;49.224;12.074;2022-12-13T12:09:03;9.60;;;7.53;;
2840;SDS011;53423;49.224;12.074;2022-12-13T12:11:34;8.87;;;7.97;;
2840;SDS011;53423;49.224;12.074;2022-12-13T12:14:09;9.20;;;8.10;;
2840;SDS011;53423;49.224;12.074;2022-12-13T12:16:44;7.77;;;6.97;;
2840;SDS011;53423;49.224;12.074;2022-12-13T12:19:16;8.57;;;7.50;;
2840;SDS011;53423;49.224;12.074;2022-12-13T12:21:51;9.23;;;8.30;;
2840;SDS011;53423;49.224;12.074;2022-12-13T12:24:42;13.47;;;10.23;;
2840;SDS011;53423;49.224;12.074;2022-12-13T12:27:23;10.53;;;9.43;;
2840;SDS011;53423;49.224;12.074;2022-12-13T12:30:02;8.47;;;7.67;;
2840;SDS011;53423;49.224;12.074;2022-12-13T12:32:40;8.70;;;7.80;;
2840;SDS011;53423;49.224;12.074;2022-12-13T12:35:17;8.30;;;7.10;;
2840;SDS011;53423;49.224;12.074;2022-12-13T12:38:15;10.17;;;7.37;;
2840;SDS011;53423;49.224;12.074;2022-12-13T12:40:59;9.77;;;8.13;;
2840;SDS011;53423;49.224;12.074;2022-12-13T12:43:44;8.27;;;7.33;;
2840;SDS011;53423;49.224;12.074;2022-12-13T12:46:26;13.37;;;10.87;;
2840;SDS011;53423;49.224;12.074;2022-12-13T12:49:30;10.30;;;8.07;;
2840;SDS011;53423;49.224;12.074;2022-12-13T12:52:18;10.10;;;7.67;;
2840;SDS011;53423;49.224;12.074;2022-12-13T12:54:57;8.40;;;7.60;;
2840;SDS011;53423;49.224;12.074;2022-12-13T12:57:36;7.73;;;6.93;;
2840;SDS011;53423;49.224;12.074;2022-12-13T13:00:14;8.97;;;8.07;;
2840;SDS011;53423;49.224;12.074;2022-12-13T13:02:45;12.93;;;7.20;;
2840;SDS011;53423;49.224;12.074;2022-12-13T13:05:19;10.77;;;9.20;;
2840;SDS011;53423;49.224;12.074;2022-12-13T13:07:52;9.20;;;8.10;;
2840;SDS011;53423;49.224;12.074;2022-12-13T13:10:25;8.50;;;7.10;;
2840;SDS011;53423;49.224;12.074;2022-12-13T13:12:54;6.97;;;6.10;;
2840;SDS011;53423;49.224;12.074;2022-12-13T13:15:55;10.97;;;8.33;;
2840;SDS011;53423;49.224;12.074;2022-12-13T13:18:44;8.23;;;7.43;;
2840;SDS011;53423;49.224;12.074;2022-12-13T13:21:25;8.93;;;7.17;;
2840;SDS011;53423;49.224;12.074;2022-12-13T13:24:05;8.70;;;6.90;;
2840;SDS011;53423;49.224;12.074;2022-12-13T13:26:40;11.23;;;7.70;;
2840;SDS011;53423;49.224;12.074;2022-12-13T13:29:29;11.67;;;8.83;;
2840;SDS011;53423;49.224;12.074;2022-12-13T13:32:01;9.00;;;7.17;;
2840;SDS011;53423;49.224;12.074;2022-12-13T13:34:57;13.20;;;9.43;;
2840;SDS011;53423;49.224;12.074;2022-12-13T13:47:40;10.17;;;9.10;;
2840;SDS011;53423;49.224;12.074;2022-12-13T13:50:21;7.97;;;6.67;;
2840;SDS011;53423;49.224;12.074;2022-12-13T13:53:10;8.50;;;7.37;;
2840;SDS011;53423;49.224;12.074;2022-12-13T13:56:05;9.53;;;7.80;;
2840;SDS011;53423;49.224;12.074;2022-12-13T13:59:04;16.57;;;9.73;;
2840;SDS011;53423;49.224;12.074;2022-12-13T14:02:15;13.77;;;9.83;;
2840;SDS011;53423;49.224;12.074;2022-12-13T14:08:10;9.33;;;7.17;;
2840;SDS011;53423;49.224;12.074;2022-12-13T14:10:49;10.20;;;6.87;;
2840;SDS011;53423;49.224;12.074;2022-12-13T14:13:46;8.80;;;6.50;;
2840;SDS011;53423;49.224;12.074;2022-12-13T14:23:14;11.13;;;7.10;;
2840;SDS011;53423;49.224;12.074;2022-12-13T14:25:59;9.53;;;7.90;;
2840;SDS011;53423;49.224;12.074;2022-12-13T14:28:47;11.87;;;7.37;;
2840;SDS011;53423;49.224;12.074;2022-12-13T14:31:17;11.23;;;8.20;;
2840;SDS011;53423;49.224;12.074;2022-12-13T14:33:48;17.83;;;12.37;;
2840;SDS011;53423;49.224;12.074;2022-12-13T14:36:24;20.77;;;12.70;;
2840;SDS011;53423;49.224;12.074;2022-12-13T14:39:02;15.17;;;10.77;;
2840;SDS011;53423;49.224;12.074;2022-12-13T14:41:50;16.30;;;10.20;;
2840;SDS011;53423;49.224;12.074;2022-12-13T14:44:23;11.13;;;8.63;;
2840;SDS011;53423;49.224;12.074;2022-12-13T14:46:53;10.63;;;7.87;;
2840;SDS011;53423;49.224;12.074;2022-12-13T14:49:30;10.83;;;7.47;;
2840;SDS011;53423;49.224;12.074;2022-12-13T14:52:02;10.63;;;7.33;;
2840;SDS011;53423;49.224;12.074;2022-12-13T14:54:36;12.97;;;7.90;;
2840;SDS011;53423;49.224;12.074;2022-12-13T14:57:14;15.43;;;10.47;;
2840;SDS011;53423;49.224;12.074;2022-12-13T14:59:44;23.97;;;14.77;;
2840;SDS011;53423;49.224;12.074;2022-12-13T15:02:16;24.27;;;14.77;;
2840;SDS011;53423;49.224;12.074;2022-12-13T15:04:57;20.73;;;13.97;;
2840;SDS011;53423;49.224;12.074;2022-12-13T15:07:29;22.43;;;14.30;;
2840;SDS011;53423;49.224;12.074;2022-12-13T15:10:01;22.30;;;13.23;;
2840;SDS011;53423;49.224;12.074;2022-12-13T15:12:32;20.33;;;12.33;;
2840;SDS011;53423;49.224;12.074;2022-12-13T15:15:01;19.03;;;11.70;;
2840;SDS011;53423;49.224;12.074;2022-12-13T15:17:32;18.27;;;10.63;;
2840;SDS011;53423;49.224;12.074;2022-12-13T15:20:19;18.33;;;11.37;;
2840;SDS011;53423;49.224;12.074;2022-12-13T15:22:56;16.63;;;11.17;;
2840;SDS011;53423;49.224;12.074;2022-12-13T15:25:28;14.60;;;9.93;;
2840;SDS011;53423;49.224;12.074;2022-12-13T15:27:56;17.33;;;11.30;;
2840;SDS011;53423;49.224;12.074;2022-12-13T15:30:32;15.07;;;9.60;;
2840;SDS011;53423;49.224;12.074;2022-12-13T15:33:01;15.00;;;10.10;;
2840;SDS011;53423;49.224;12.074;2022-12-13T15:35:30;16.93;;;9.63;;